sensor_id;sensor_type;location;lat;lon;timestamp;pressure;altitude;pressure_sealevel;temperature;humidity
10881;BME280;5493;48.884;8.338;2023-02-03T00:01:09;101637.78;;;8.15;100.00
10881;BME280;5493;48.884;8.338;2023-02-03T00:03:36;101646.00;;;8.37;100.00
10881;BME280;5493;48.884;8.338;2023-02-03T00:06:03;101653.06;;;8.14;100.00
10881;BME280;5493;48.884;8.338;2023-02-03T00:08:30;101655.94;;;8.05;100.00
10881;BME280;5493;48.884;8.338;2023-02-03T00:10:57;101658.09;;;8.25;100.00
10881;BME280;5493;48.884;8.338;2023-02-03T00:13:24;101642.16;;;8.08;100.00
10881;BME280;5493;48.884;8.338;2023-02-03T00:15:51;101646.88;;;8.14;100.00
10881;BME280;5493;48.884;8.338;2023-02-03T00:18:19;101648.34;;;8.32;100.00
10881;BME280;5493;48.884;8.338;2023-02-03T00:20:45;101642.81;;;8.34;100.00
10881;BME280;5493;48.884;8.338;2023-02-03T00:23:12;101644.19;;;8.14;100.00
10881;BME280;5493;48.884;8.338;2023-02-03T00:25:39;101644.66;;;8.33;100.00
10881;BME280;5493;48.884;8.338;2023-02-03T00:28:05;101638.31;;;8.10;100.00
10881;BME280;5493;48.884;8.338;2023-02-03T00:30:33;101607.25;;;8.00;100.00
10881;BME280;5493;48.884;8.338;2023-02-03T00:33:00;101614.78;;;8.12;100.00
10881;BME280;5493;48.884;8.338;2023-02-03T00:35:28;101632.91;;;8.26;100.00
10881;BME280;5493;48.884;8.338;2023-02-03T00:37:55;101628.56;;;8.17;100.00
10881;BME280;5493;48.884;8.338;2023-02-03T00:40:23;101624.34;;;8.15;100.00
10881;BME280;5493;48.884;8.338;2023-02-03T00:42:50;101639.13;;;8.19;100.00
10881;BME280;5493;48.884;8.338;2023-02-03T00:45:17;101629.56;;;8.16;100.00
10881;BME280;5493;48.884;8.338;2023-02-03T00:47:44;101635.75;;;8.25;100.00
10881;BME280;5493;48.884;8.338;2023-02-03T00:50:10;101634.25;;;8.14;100.00
10881;BME280;5493;48.884;8.338;2023-02-03T00:52:38;101638.28;;;8.18;100.00
10881;BME280;5493;48.884;8.338;2023-02-03T00:55:06;101626.69;;;8.26;100.00
10881;BME280;5493;48.884;8.338;2023-02-03T00:57:33;101630.75;;;8.30;100.00
10881;BME280;5493;48.884;8.338;2023-02-03T00:59:59;101629.91;;;8.13;100.00
10881;BME280;5493;48.884;8.338;2023-02-03T01:02:26;101641.13;;;8.41;100.00
10881;BME280;5493;48.884;8.338;2023-02-03T01:04:52;101633.56;;;8.36;100.00
10881;BME280;5493;48.884;8.338;2023-02-03T01:07:19;101622.31;;;8.33;100.00
10881;BME280;5493;48.884;8.338;2023-02-03T01:09:46;101631.22;;;8.33;100.00
10881;BME280;5493;48.884;8.338;2023-02-03T01:12:13;101627.88;;;8.23;100.00
10881;BME280;5493;48.884;8.338;2023-02-03T01:14:39;101613.94;;;8.12;100.00
10881;BME280;5493;48.884;8.338;2023-02-03T01:17:06;101600.47;;;8.36;100.00
10881;BME280;5493;48.884;8.338;2023-02-03T01:19:33;101598.97;;;8.33;100.00
10881;BME280;5493;48.884;8.338;2023-02-03T01:22:00;101599.66;;;8.27;100.00
10881;BME280;5493;48.884;8.338;2023-02-03T01:24:28;101592.09;;;8.23;100.00
10881;BME280;5493;48.884;8.338;2023-02-03T01:26:56;101599.03;;;8.09;100.00
10881;BME280;5493;48.884;8.338;2023-02-03T01:29:22;101588.59;;;8.14;100.00
10881;BME280;5493;48.884;8.338;2023-02-03T01:31:49;101574.84;;;8.09;100.00
10881;BME280;5493;48.884;8.338;2023-02-03T01:34:15;101600.19;;;8.07;100.00
10881;BME280;5493;48.884;8.338;2023-02-03T01:36:42;101618.22;;;7.74;100.00
10881;BME280;5493;48.884;8.338;2023-02-03T01:39:13;101624.41;;;7.90;100.00
10881;BME280;5493;48.884;8.338;2023-02-03T01:41:40;101630.78;;;7.98;100.00
10881;BME280;5493;48.884;8.338;2023-02-03T01:44:43;101614.50;;;7.83;100.00
10881;BME280;5493;48.884;8.338;2023-02-03T01:47:23;101629.28;;;7.63;100.00
10881;BME280;5493;48.884;8.338;2023-02-03T01:49:56;101624.75;;;7.55;100.00
10881;BME280;5493;48.884;8.338;2023-02-03T01:52:24;101621.22;;;7.63;100.00
10881;BME280;5493;48.884;8.338;2023-02-03T01:54:53;101618.72;;;7.69;100.00
10881;BME280;5493;48.884;8.338;2023-02-03T01:57:24;101604.25;;;7.46;100.00
10881;BME280;5493;48.884;8.338;2023-02-03T01:59:54;101611.16;;;7.40;100.00
10881;BME280;5493;48.884;8.338;2023-02-03T02:02:23;101604.44;;;7.61;100.00
10881;BME280;5493;48.884;8.338;2023-02-03T02:04:54;101607.47;;;7.66;100.00
10881;BME280;5493;48.884;8.338;2023-02-03T02:07:23;101583.81;;;7.77;100.00
10881;BME280;5493;48.884;8.338;2023-02-03T02:09:49;101563.00;;;7.79;100.00
10881;BME280;5493;48.884;8.338;2023-02-03T02:12:16;101562.00;;;7.56;100.00
10881;BME280;5493;48.884;8.338;2023-02-03T02:14:43;101543.19;;;7.72;100.00
10881;BME280;5493;48.884;8.338;2023-02-03T02:17:19;101515.22;;;7.51;100.00
10881;BME280;5493;48.884;8.338;2023-02-03T02:20:26;101530.63;;;7.65;100.00
10881;BME280;5493;48.884;8.338;2023-02-03T02:29:08;101552.13;;;7.49;100.00
10881;BME280;5493;48.884;8.338;2023-02-03T02:31:51;101544.88;;;7.49;100.00
10881;BME280;5493;48.884;8.338;2023-02-03T02:34:29;101562.69;;;7.58;100.00
10881;BME280;5493;48.884;8.338;2023-02-03T02:37:05;101551.09;;;7.58;100.00
10881;BME280;5493;48.884;8.338;2023-02-03T02:39:38;101554.78;;;7.73;100.00
10881;BME280;5493;48.884;8.338;2023-02-03T02:42:13;101530.06;;;7.85;100.00
10881;BME280;5493;48.884;8.338;2023-02-03T02:44:44;101536.84;;;7.73;100.00
10881;BME280;5493;48.884;8.338;2023-02-03T02:47:17;101541.81;;;7.92;100.00
10881;BME280;5493;48.884;8.338;2023-02-03T02:49:49;101530.75;;;7.87;100.00
10881;BME280;5493;48.884;8.338;2023-02-03T02:52:17;101535.94;;;7.89;100.00
10881;BME280;5493;48.884;8.338;2023-02-03T02:54:49;101539.69;;;7.72;100.00
10881;BME280;5493;48.884;8.338;2023-02-03T02:57:19;101524.56;;;7.87;100.00
10881;BME280;5493;48.884;8.338;2023-02-03T02:59:47;101514.69;;;7.63;100.00
10881;BME280;5493;48.884;8.338;2023-02-03T03:02:13;101505.38;;;7.98;100.00
10881;BME280;5493;48.884;8.338;2023-02-03T03:04:43;101516.34;;;7.88;100.00
10881;BME280;5493;48.884;8.338;2023-02-03T03:07:15;101504.38;;;7.99;100.00
10881;BME280;5493;48.884;8.338;2023-02-03T03:09:46;101496.09;;;8.17;100.00
10881;BME280;5493;48.884;8.338;2023-02-03T03:12:17;101493.31;;;7.94;100.00
10881;BME280;5493;48.884;8.338;2023-02-03T03:14:49;101483.78;;;7.83;100.00
10881;BME280;5493;48.884;8.338;2023-02-03T03:17:20;101489.97;;;7.92;100.00
10881;BME280;5493;48.884;8.338;2023-02-03T03:19:53;101478.31;;;8.08;100.00
10881;BME280;5493;48.884;8.338;2023-02-03T03:22:26;101477.81;;;8.04;100.00
10881;BME280;5493;48.884;8.338;2023-02-03T03:24:59;101475.97;;;8.05;100.00
10881;BME280;5493;48.884;8.338;2023-02-03T03:27:31;101485.84;;;8.12;100.00
10881;BME280;5493;48.884;8.338;2023-02-03T03:30:02;101501.50;;;8.01;100.00
10881;BME280;5493;48.884;8.338;2023-02-03T03:32:31;101503.81;;;8.12;100.00
10881;BME280;5493;48.884;8.338;2023-02-03T03:35:00;101521.91;;;8.18;100.00
10881;BME280;5493;48.884;8.338;2023-02-03T03:37:31;101533.38;;;8.12;100.00
10881;BME280;5493;48.884;8.338;2023-02-03T03:40:01;101540.31;;;7.90;100.00
10881;BME280;5493;48.884;8.338;2023-02-03T03:42:35;101526.25;;;7.80;100.00
10881;BME280;5493;48.884;8.338;2023-02-03T03:45:06;101538.13;;;7.93;100.00
10881;BME280;5493;48.884;8.338;2023-02-03T03:47:38;101540.28;;;8.06;100.00
10881;BME280;5493;48.884;8.338;2023-02-03T03:50:11;101537.09;;;8.03;100.00
10881;BME280;5493;48.884;8.338;2023-02-03T03:52:42;101542.13;;;7.98;100.00
10881;BME280;5493;48.884;8.338;2023-02-03T03:55:11;101572.50;;;8.06;100.00
10881;BME280;5493;48.884;8.338;2023-02-03T03:57:42;101589.63;;;8.13;100.00
10881;BME280;5493;48.884;8.338;2023-02-03T04:00:13;101565.53;;;7.73;100.00
10881;BME280;5493;48.884;8.338;2023-02-03T04:02:41;101586.94;;;8.13;100.00
10881;BME280;5493;48.884;8.338;2023-02-03T04:05:12;101589.78;;;8.04;100.00
10881;BME280;5493;48.884;8.338;2023-02-03T04:07:41;101599.88;;;8.02;100.00
10881;BME280;5493;48.884;8.338;2023-02-03T04:10:15;101606.41;;;8.07;100.00
10881;BME280;5493;48.884;8.338;2023-02-03T04:12:43;101610.06;;;8.14;100.00
10881;BME280;5493;48.884;8.338;2023-02-03T04:15:09;101601.22;;;7.89;100.00
10881;BME280;5493;48.884;8.338;2023-02-03T04:17:36;101595.56;;;7.84;100.00
10881;BME280;5493;48.884;8.338;2023-02-03T04:20:03;101588.50;;;7.91;100.00
10881;BME280;5493;48.884;8.338;2023-02-03T04:22:30;101580.59;;;7.82;100.00
10881;BME280;5493;48.884;8.338;2023-02-03T04:24:57;101575.06;;;7.83;100.00
10881;BME280;5493;48.884;8.338;2023-02-03T04:27:24;101566.50;;;7.88;100.00
10881;BME280;5493;48.884;8.338;2023-02-03T04:29:50;101554.25;;;7.85;100.00
10881;BME280;5493;48.884;8.338;2023-02-03T04:32:17;101552.75;;;7.75;100.00
10881;BME280;5493;48.884;8.338;2023-02-03T04:34:43;101559.81;;;7.60;100.00
10881;BME280;5493;48.884;8.338;2023-02-03T04:37:10;101560.84;;;7.67;100.00
10881;BME280;5493;48.884;8.338;2023-02-03T04:39:38;101573.88;;;7.94;100.00
10881;BME280;5493;48.884;8.338;2023-02-03T04:42:04;101561.34;;;7.70;100.00
10881;BME280;5493;48.884;8.338;2023-02-03T04:44:31;101567.22;;;7.74;100.00
10881;BME280;5493;48.884;8.338;2023-02-03T04:46:57;101570.19;;;7.87;100.00
10881;BME280;5493;48.884;8.338;2023-02-03T04:49:24;101556.47;;;7.66;100.00
10881;BME280;5493;48.884;8.338;2023-02-03T04:51:51;101562.16;;;7.79;100.00
10881;BME280;5493;48.884;8.338;2023-02-03T04:54:17;101563.63;;;7.81;100.00
10881;BME280;5493;48.884;8.338;2023-02-03T04:56:45;101570.03;;;7.56;100.00
10881;BME280;5493;48.884;8.338;2023-02-03T04:59:12;101560.50;;;7.70;100.00
10881;BME280;5493;48.884;8.338;2023-02-03T05:01:38;101551.75;;;7.92;100.00
10881;BME280;5493;48.884;8.338;2023-02-03T05:04:05;101558.81;;;7.69;100.00
10881;BME280;5493;48.884;8.338;2023-02-03T05:06:32;101559.16;;;7.66;100.00
10881;BME280;5493;48.884;8.338;2023-02-03T05:08:59;101575.41;;;7.80;100.00
10881;BME280;5493;48.884;8.338;2023-02-03T05:11:26;101572.88;;;7.71;100.00
10881;BME280;5493;48.884;8.338;2023-02-03T05:13:54;101566.53;;;7.64;100.00
10881;BME280;5493;48.884;8.338;2023-02-03T05:16:20;101557.13;;;7.68;100.00
10881;BME280;5493;48.884;8.338;2023-02-03T05:18:47;101558.66;;;7.70;100.00
10881;BME280;5493;48.884;8.338;2023-02-03T05:21:14;101575.91;;;7.60;100.00
10881;BME280;5493;48.884;8.338;2023-02-03T05:23:40;101568.53;;;7.54;100.00
10881;BME280;5493;48.884;8.338;2023-02-03T05:26:07;101566.84;;;7.53;100.00
10881;BME280;5493;48.884;8.338;2023-02-03T05:28:33;101567.16;;;7.82;100.00
10881;BME280;5493;48.884;8.338;2023-02-03T05:31:02;101545.53;;;7.75;100.00
10881;BME280;5493;48.884;8.338;2023-02-03T05:33:28;101548.72;;;7.71;100.00
10881;BME280;5493;48.884;8.338;2023-02-03T05:35:55;101541.88;;;7.60;100.00
10881;BME280;5493;48.884;8.338;2023-02-03T05:38:22;101553.94;;;7.72;100.00
10881;BME280;5493;48.884;8.338;2023-02-03T05:40:49;101551.75;;;7.84;100.00
10881;BME280;5493;48.884;8.338;2023-02-03T05:43:33;101548.56;;;7.64;100.00
10881;BME280;5493;48.884;8.338;2023-02-03T05:46:01;101544.03;;;7.81;100.00
10881;BME280;5493;48.884;8.338;2023-02-03T05:48:28;101554.59;;;7.74;100.00
10881;BME280;5493;48.884;8.338;2023-02-03T05:50:55;101556.75;;;7.95;100.00
10881;BME280;5493;48.884;8.338;2023-02-03T05:53:22;101558.41;;;7.96;100.00
10881;BME280;5493;48.884;8.338;2023-02-03T05:55:48;101544.00;;;7.89;100.00
10881;BME280;5493;48.884;8.338;2023-02-03T05:58:15;101538.81;;;7.87;100.00
10881;BME280;5493;48.884;8.338;2023-02-03T06:00:41;101547.53;;;7.89;100.00
10881;BME280;5493;48.884;8.338;2023-02-03T06:03:09;101558.63;;;7.78;100.00
10881;BME280;5493;48.884;8.338;2023-02-03T06:05:36;101556.47;;;7.66;100.00
10881;BME280;5493;48.884;8.338;2023-02-03T06:08:05;101548.91;;;7.77;100.00
10881;BME280;5493;48.884;8.338;2023-02-03T06:10:32;101553.44;;;7.77;100.00
10881;BME280;5493;48.884;8.338;2023-02-03T06:12:59;101501.78;;;7.67;100.00
10881;BME280;5493;48.884;8.338;2023-02-03T06:15:25;101539.31;;;7.91;100.00
10881;BME280;5493;48.884;8.338;2023-02-03T06:17:52;101514.38;;;7.58;100.00
10881;BME280;5493;48.884;8.338;2023-02-03T06:20:20;101517.50;;;7.78;100.00
10881;BME280;5493;48.884;8.338;2023-02-03T06:22:46;101529.75;;;7.88;100.00
10881;BME280;5493;48.884;8.338;2023-02-03T06:25:13;101533.22;;;8.05;100.00
10881;BME280;5493;48.884;8.338;2023-02-03T06:27:39;101540.59;;;8.03;100.00
10881;BME280;5493;48.884;8.338;2023-02-03T06:30:07;101545.03;;;7.72;100.00
10881;BME280;5493;48.884;8.338;2023-02-03T06:32:34;101551.41;;;7.87;100.00
10881;BME280;5493;48.884;8.338;2023-02-03T06:35:00;101554.09;;;7.79;100.00
10881;BME280;5493;48.884;8.338;2023-02-03T06:37:28;101519.81;;;7.89;100.00
10881;BME280;5493;48.884;8.338;2023-02-03T06:39:55;101538.13;;;7.85;100.00
10881;BME280;5493;48.884;8.338;2023-02-03T06:42:21;101517.50;;;7.86;100.00
10881;BME280;5493;48.884;8.338;2023-02-03T06:44:48;101501.88;;;7.81;100.00
10881;BME280;5493;48.884;8.338;2023-02-03T06:47:15;101524.00;;;8.00;100.00
10881;BME280;5493;48.884;8.338;2023-02-03T06:49:41;101528.28;;;7.70;100.00
10881;BME280;5493;48.884;8.338;2023-02-03T06:52:08;101529.09;;;7.78;100.00
10881;BME280;5493;48.884;8.338;2023-02-03T06:54:35;101531.91;;;7.93;100.00
10881;BME280;5493;48.884;8.338;2023-02-03T06:57:02;101522.22;;;7.68;100.00
10881;BME280;5493;48.884;8.338;2023-02-03T06:59:29;101536.16;;;7.71;100.00
10881;BME280;5493;48.884;8.338;2023-02-03T07:01:55;101524.75;;;7.77;100.00
10881;BME280;5493;48.884;8.338;2023-02-03T07:04:22;101549.56;;;7.87;100.00
10881;BME280;5493;48.884;8.338;2023-02-03T07:06:49;101542.84;;;7.91;100.00
10881;BME280;5493;48.884;8.338;2023-02-03T07:09:16;101534.09;;;7.81;100.00
10881;BME280;5493;48.884;8.338;2023-02-03T07:11:44;101546.00;;;7.95;100.00
10881;BME280;5493;48.884;8.338;2023-02-03T07:14:10;101529.59;;;7.82;100.00
10881;BME280;5493;48.884;8.338;2023-02-03T07:16:37;101530.97;;;7.70;100.00
10881;BME280;5493;48.884;8.338;2023-02-03T07:19:04;101540.16;;;7.75;100.00
10881;BME280;5493;48.884;8.338;2023-02-03T07:21:31;101523.19;;;7.91;100.00
10881;BME280;5493;48.884;8.338;2023-02-03T07:23:58;101516.84;;;7.84;100.00
10881;BME280;5493;48.884;8.338;2023-02-03T07:26:26;101478.63;;;7.66;100.00
10881;BME280;5493;48.884;8.338;2023-02-03T07:28:54;101514.88;;;7.70;100.00
10881;BME280;5493;48.884;8.338;2023-02-03T07:31:22;101514.13;;;7.92;100.00
10881;BME280;5493;48.884;8.338;2023-02-03T07:33:49;101513.28;;;7.91;100.00
10881;BME280;5493;48.884;8.338;2023-02-03T07:36:15;101484.44;;;7.85;100.00
10881;BME280;5493;48.884;8.338;2023-02-03T07:38:42;101505.91;;;7.93;100.00
10881;BME280;5493;48.884;8.338;2023-02-03T07:41:08;101536.97;;;7.88;100.00
10881;BME280;5493;48.884;8.338;2023-02-03T07:43:35;101542.84;;;7.91;100.00
10881;BME280;5493;48.884;8.338;2023-02-03T07:46:03;101548.84;;;8.10;100.00
10881;BME280;5493;48.884;8.338;2023-02-03T07:48:30;101562.44;;;8.00;100.00
10881;BME280;5493;48.884;8.338;2023-02-03T07:50:56;101566.44;;;8.12;100.00
10881;BME280;5493;48.884;8.338;2023-02-03T07:53:23;101567.16;;;8.06;100.00
10881;BME280;5493;48.884;8.338;2023-02-03T07:55:49;101566.94;;;8.16;100.00
10881;BME280;5493;48.884;8.338;2023-02-03T07:58:16;101577.19;;;8.12;100.00
10881;BME280;5493;48.884;8.338;2023-02-03T08:00:42;101584.34;;;8.36;100.00
10881;BME280;5493;48.884;8.338;2023-02-03T08:03:10;101577.84;;;8.30;100.00
10881;BME280;5493;48.884;8.338;2023-02-03T08:05:37;101574.28;;;8.22;100.00
10881;BME280;5493;48.884;8.338;2023-02-03T08:08:04;101596.16;;;8.11;100.00
10881;BME280;5493;48.884;8.338;2023-02-03T08:10:30;101583.91;;;8.08;100.00
10881;BME280;5493;48.884;8.338;2023-02-03T08:12:57;101613.78;;;8.13;100.00
10881;BME280;5493;48.884;8.338;2023-02-03T08:15:23;101621.50;;;8.08;100.00
10881;BME280;5493;48.884;8.338;2023-02-03T08:17:51;101597.00;;;8.11;100.00
10881;BME280;5493;48.884;8.338;2023-02-03T08:20:19;101593.16;;;7.98;100.00
10881;BME280;5493;48.884;8.338;2023-02-03T08:22:45;101593.66;;;8.09;100.00
10881;BME280;5493;48.884;8.338;2023-02-03T08:25:12;101581.72;;;8.04;100.00
10881;BME280;5493;48.884;8.338;2023-02-03T08:27:39;101588.63;;;8.06;100.00
10881;BME280;5493;48.884;8.338;2023-02-03T08:30:08;101602.72;;;8.00;100.00
10881;BME280;5493;48.884;8.338;2023-02-03T08:32:36;101614.78;;;8.12;100.00
10881;BME280;5493;48.884;8.338;2023-02-03T08:35:03;101605.59;;;7.99;100.00
10881;BME280;5493;48.884;8.338;2023-02-03T08:37:31;101632.59;;;8.13;100.00
10881;BME280;5493;48.884;8.338;2023-02-03T08:39:59;101618.97;;;8.15;100.00
10881;BME280;5493;48.884;8.338;2023-02-03T08:42:25;101610.91;;;8.23;100.00
10881;BME280;5493;48.884;8.338;2023-02-03T08:44:52;101618.19;;;7.98;100.00
10881;BME280;5493;48.884;8.338;2023-02-03T08:47:19;101611.09;;;8.13;100.00
10881;BME280;5493;48.884;8.338;2023-02-03T08:49:45;101623.34;;;8.08;100.00
10881;BME280;5493;48.884;8.338;2023-02-03T08:52:12;101627.69;;;8.33;100.00
10881;BME280;5493;48.884;8.338;2023-02-03T08:54:41;101617.00;;;8.01;100.00
10881;BME280;5493;48.884;8.338;2023-02-03T08:57:08;101610.28;;;7.97;100.00
10881;BME280;5493;48.884;8.338;2023-02-03T08:59:37;101599.69;;;8.03;100.00
10881;BME280;5493;48.884;8.338;2023-02-03T09:02:05;101591.78;;;8.18;100.00
10881;BME280;5493;48.884;8.338;2023-02-03T09:04:34;101601.31;;;8.36;100.00
10881;BME280;5493;48.884;8.338;2023-02-03T09:07:01;101596.31;;;8.33;100.00
10881;BME280;5493;48.884;8.338;2023-02-03T09:09:28;101599.03;;;8.09;100.00
10881;BME280;5493;48.884;8.338;2023-02-03T09:11:56;101603.00;;;8.21;100.00
10881;BME280;5493;48.884;8.338;2023-02-03T09:14:26;101604.53;;;8.16;100.00
10881;BME280;5493;48.884;8.338;2023-02-03T09:16:53;101599.34;;;8.14;100.00
10881;BME280;5493;48.884;8.338;2023-02-03T09:19:19;101603.19;;;8.28;100.00
10881;BME280;5493;48.884;8.338;2023-02-03T09:21:46;101610.03;;;8.47;100.00
10881;BME280;5493;48.884;8.338;2023-02-03T09:24:13;101608.06;;;8.32;100.00
10881;BME280;5493;48.884;8.338;2023-02-03T09:26:40;101597.50;;;8.31;100.00
10881;BME280;5493;48.884;8.338;2023-02-03T09:29:08;101598.47;;;8.38;100.00
10881;BME280;5493;48.884;8.338;2023-02-03T09:31:34;101623.84;;;8.27;100.00
10881;BME280;5493;48.884;8.338;2023-02-03T09:34:01;101607.88;;;8.18;100.00
10881;BME280;5493;48.884;8.338;2023-02-03T09:36:27;101604.41;;;8.01;100.00
10881;BME280;5493;48.884;8.338;2023-02-03T09:38:55;101605.06;;;8.11;100.00
10881;BME280;5493;48.884;8.338;2023-02-03T09:41:31;101548.63;;;8.19;100.00
10881;BME280;5493;48.884;8.338;2023-02-03T09:44:05;101614.09;;;8.34;100.00
10881;BME280;5493;48.884;8.338;2023-02-03T09:46:39;101600.19;;;8.31;100.00
10881;BME280;5493;48.884;8.338;2023-02-03T09:49:13;101600.66;;;8.18;100.00
10881;BME280;5493;48.884;8.338;2023-02-03T09:51:43;101603.84;;;8.22;100.00
10881;BME280;5493;48.884;8.338;2023-02-03T09:54:15;101587.91;;;8.28;100.00
10881;BME280;5493;48.884;8.338;2023-02-03T09:56:44;101589.22;;;8.40;100.00
10881;BME280;5493;48.884;8.338;2023-02-03T09:59:16;101567.91;;;8.23;100.00
10881;BME280;5493;48.884;8.338;2023-02-03T10:01:49;101584.41;;;8.67;100.00
10881;BME280;5493;48.884;8.338;2023-02-03T10:04:25;101563.69;;;8.36;100.00
10881;BME280;5493;48.884;8.338;2023-02-03T10:07:01;101560.81;;;8.46;100.00
10881;BME280;5493;48.884;8.338;2023-02-03T10:09:40;101571.19;;;8.57;100.00
10881;BME280;5493;48.884;8.338;2023-02-03T10:12:24;101571.72;;;8.53;100.00
10881;BME280;5493;48.884;8.338;2023-02-03T10:15:11;101581.28;;;8.47;100.00
10881;BME280;5493;48.884;8.338;2023-02-03T10:17:50;101592.16;;;8.62;100.00
10881;BME280;5493;48.884;8.338;2023-02-03T10:20:23;101610.56;;;8.42;100.00
10881;BME280;5493;48.884;8.338;2023-02-03T10:22:54;101624.75;;;8.67;100.00
10881;BME280;5493;48.884;8.338;2023-02-03T10:25:30;101613.41;;;8.79;100.00
10881;BME280;5493;48.884;8.338;2023-02-03T10:28:02;101613.28;;;8.73;100.00
10881;BME280;5493;48.884;8.338;2023-02-03T10:30:32;101625.88;;;8.72;100.00
10881;BME280;5493;48.884;8.338;2023-02-03T10:33:13;101628.22;;;8.28;100.00
10881;BME280;5493;48.884;8.338;2023-02-03T10:35:46;101607.78;;;8.58;100.00
10881;BME280;5493;48.884;8.338;2023-02-03T10:38:23;101611.16;;;8.60;100.00
10881;BME280;5493;48.884;8.338;2023-02-03T10:40:50;101589.75;;;8.75;100.00
10881;BME280;5493;48.884;8.338;2023-02-03T10:43:17;101586.13;;;8.60;100.00
10881;BME280;5493;48.884;8.338;2023-02-03T10:46:01;101592.47;;;8.67;100.00
10881;BME280;5493;48.884;8.338;2023-02-03T10:48:29;101578.72;;;8.62;100.00
10881;BME280;5493;48.884;8.338;2023-02-03T10:50:57;101566.56;;;8.74;100.00
10881;BME280;5493;48.884;8.338;2023-02-03T10:53:25;101576.00;;;8.70;100.00
10881;BME280;5493;48.884;8.338;2023-02-03T10:56:02;101578.22;;;8.58;100.00
10881;BME280;5493;48.884;8.338;2023-02-03T10:58:32;101567.22;;;8.37;100.00
10881;BME280;5493;48.884;8.338;2023-02-03T11:01:09;101564.75;;;8.66;100.00
10881;BME280;5493;48.884;8.338;2023-02-03T11:03:37;101561.00;;;8.75;100.00
10881;BME280;5493;48.884;8.338;2023-02-03T11:06:09;101571.09;;;8.43;100.00
10881;BME280;5493;48.884;8.338;2023-02-03T11:08:38;101560.97;;;8.53;100.00
10881;BME280;5493;48.884;8.338;2023-02-03T11:11:06;101569.69;;;8.47;100.00
10881;BME280;5493;48.884;8.338;2023-02-03T11:13:33;101554.88;;;8.59;100.00
10881;BME280;5493;48.884;8.338;2023-02-03T11:16:01;101562.56;;;8.70;100.00
10881;BME280;5493;48.884;8.338;2023-02-03T11:18:39;101577.13;;;8.45;100.00
10881;BME280;5493;48.884;8.338;2023-02-03T11:21:12;101556.72;;;8.58;100.00
10881;BME280;5493;48.884;8.338;2023-02-03T11:23:50;101552.50;;;8.64;100.00
10881;BME280;5493;48.884;8.338;2023-02-03T11:26:21;101563.66;;;8.53;100.00
10881;BME280;5493;48.884;8.338;2023-02-03T11:28:51;101549.63;;;8.65;100.00
10881;BME280;5493;48.884;8.338;2023-02-03T11:31:23;101545.69;;;8.76;100.00
10881;BME280;5493;48.884;8.338;2023-02-03T11:33:56;101526.97;;;8.60;100.00
10881;BME280;5493;48.884;8.338;2023-02-03T11:36:28;101539.81;;;8.80;100.00
10881;BME280;5493;48.884;8.338;2023-02-03T11:39:17;101536.09;;;8.81;100.00
10881;BME280;5493;48.884;8.338;2023-02-03T11:41:45;101540.00;;;8.79;100.00
10881;BME280;5493;48.884;8.338;2023-02-03T11:44:16;101551.84;;;8.93;100.00
10881;BME280;5493;48.884;8.338;2023-02-03T11:46:44;101523.91;;;8.71;100.00
10881;BME280;5493;48.884;8.338;2023-02-03T11:52:25;101524.47;;;8.58;100.00
10881;BME280;5493;48.884;8.338;2023-02-03T11:55:02;101502.66;;;8.53;100.00
10881;BME280;5493;48.884;8.338;2023-02-03T11:57:40;101505.09;;;8.71;100.00
10881;BME280;5493;48.884;8.338;2023-02-03T12:00:20;101493.59;;;8.77;100.00
10881;BME280;5493;48.884;8.338;2023-02-03T12:03:11;101494.56;;;8.84;100.00
10881;BME280;5493;48.884;8.338;2023-02-03T12:05:54;101513.59;;;8.82;100.00
10881;BME280;5493;48.884;8.338;2023-02-03T12:08:37;101517.94;;;8.83;100.00
10881;BME280;5493;48.884;8.338;2023-02-03T12:11:14;101535.97;;;8.98;100.00
10881;BME280;5493;48.884;8.338;2023-02-03T12:13:56;101529.22;;;9.02;100.00
10881;BME280;5493;48.884;8.338;2023-02-03T12:16:44;101519.94;;;8.89;100.00
10881;BME280;5493;48.884;8.338;2023-02-03T12:19:20;101529.91;;;9.04;100.00
10881;BME280;5493;48.884;8.338;2023-02-03T12:21:55;101522.41;;;8.91;100.00
10881;BME280;5493;48.884;8.338;2023-02-03T12:24:33;101522.69;;;8.73;100.00
10881;BME280;5493;48.884;8.338;2023-02-03T12:27:13;101516.47;;;9.04;100.00
10881;BME280;5493;48.884;8.338;2023-02-03T12:29:47;101507.28;;;8.90;100.00
10881;BME280;5493;48.884;8.338;2023-02-03T12:32:22;101524.53;;;9.04;100.00
10881;BME280;5493;48.884;8.338;2023-02-03T12:34:54;101529.81;;;9.12;100.00
10881;BME280;5493;48.884;8.338;2023-02-03T12:37:27;101533.56;;;9.11;100.00
10881;BME280;5493;48.884;8.338;2023-02-03T12:39:59;101524.91;;;9.15;100.00
10881;BME280;5493;48.884;8.338;2023-02-03T12:42:30;101525.75;;;9.16;100.00
10881;BME280;5493;48.884;8.338;2023-02-03T12:45:00;101542.00;;;9.08;100.00
10881;BME280;5493;48.884;8.338;2023-02-03T12:47:31;101542.06;;;9.22;100.00
10881;BME280;5493;48.884;8.338;2023-02-03T12:50:04;101554.72;;;9.36;100.00
10881;BME280;5493;48.884;8.338;2023-02-03T12:52:37;101551.06;;;9.07;100.00
10881;BME280;5493;48.884;8.338;2023-02-03T12:55:17;101534.44;;;9.03;100.00
10881;BME280;5493;48.884;8.338;2023-02-03T12:57:50;101541.53;;;9.19;100.00
10881;BME280;5493;48.884;8.338;2023-02-03T13:00:26;101542.22;;;9.21;100.00
10881;BME280;5493;48.884;8.338;2023-02-03T13:03:02;101513.88;;;9.10;100.00
10881;BME280;5493;48.884;8.338;2023-02-03T13:05:36;101479.97;;;9.01;100.00
10881;BME280;5493;48.884;8.338;2023-02-03T13:08:12;101463.50;;;9.19;100.00
10881;BME280;5493;48.884;8.338;2023-02-03T13:10:44;101461.38;;;9.14;100.00
10881;BME280;5493;48.884;8.338;2023-02-03T13:13:15;101460.47;;;9.22;100.00
10881;BME280;5493;48.884;8.338;2023-02-03T13:15:45;101449.50;;;9.23;100.00
10881;BME280;5493;48.884;8.338;2023-02-03T13:18:21;101468.09;;;9.18;100.00
10881;BME280;5493;48.884;8.338;2023-02-03T13:20:50;101446.19;;;9.21;100.00
10881;BME280;5493;48.884;8.338;2023-02-03T13:23:19;101450.25;;;9.17;100.00